createdAt,value
2023-06-19T00:00:56.101Z,35.77
2023-06-19T00:01:56.202Z,35.74
2023-06-19T00:02:56.184Z,35.79
2023-06-19T00:03:56.232Z,35.78
2023-06-19T00:04:56.197Z,35.77
2023-06-19T00:05:56.210Z,35.82
2023-06-19T00:06:56.245Z,35.77
2023-06-19T00:07:56.334Z,35.82
2023-06-19T00:08:56.344Z,35.78
2023-06-19T00:09:56.348Z,35.74
2023-06-19T00:10:56.388Z,35.78
2023-06-19T00:11:56.425Z,35.81
2023-06-19T00:12:56.435Z,35.80
2023-06-19T00:13:56.447Z,35.82
2023-06-19T00:14:56.479Z,35.84
2023-06-19T00:15:56.656Z,35.85
2023-06-19T00:16:56.545Z,35.82
2023-06-19T00:17:56.600Z,35.85
2023-06-19T00:18:56.584Z,35.86
2023-06-19T00:19:56.618Z,35.88
2023-06-19T00:20:56.625Z,35.89
2023-06-19T00:21:56.677Z,35.87
2023-06-19T00:22:56.662Z,35.88
2023-06-19T00:23:56.730Z,35.89
2023-06-19T00:24:56.727Z,35.84
2023-06-19T00:25:56.726Z,35.88
2023-06-19T00:26:56.807Z,35.86
2023-06-19T00:27:56.827Z,35.86
2023-06-19T00:28:56.821Z,35.92
2023-06-19T00:29:56.827Z,35.88
2023-06-19T00:30:56.904Z,35.88
2023-06-19T00:31:56.880Z,35.88
2023-06-19T00:32:56.937Z,35.95
2023-06-19T00:33:56.960Z,35.96
2023-06-19T00:34:56.958Z,35.90
2023-06-19T00:35:57.031Z,35.96
2023-06-19T00:36:57.054Z,35.93
2023-06-19T00:37:57.061Z,35.92
2023-06-19T00:38:57.098Z,35.93
2023-06-19T00:39:57.122Z,35.94
2023-06-19T00:40:57.184Z,35.92
2023-06-19T00:41:57.175Z,35.89
2023-06-19T00:42:57.201Z,35.97
2023-06-19T00:43:57.229Z,35.93
2023-06-19T00:44:57.238Z,35.94
2023-06-19T00:45:57.356Z,35.94
2023-06-19T00:46:58.957Z,35.92
2023-06-19T00:47:57.366Z,35.93
2023-06-19T00:48:57.295Z,35.95
2023-06-19T00:49:57.278Z,35.93
2023-06-19T00:50:57.275Z,35.96
2023-06-19T00:51:57.278Z,35.93
2023-06-19T00:52:57.284Z,35.97
2023-06-19T00:53:57.290Z,35.95
2023-06-19T00:54:57.245Z,35.92
2023-06-19T00:55:57.276Z,35.89
2023-06-19T00:56:57.241Z,35.96
2023-06-19T00:57:57.230Z,35.95
2023-06-19T00:58:57.254Z,35.95
2023-06-19T00:59:57.233Z,35.93
2023-06-19T01:01:07.908Z,36.00
2023-06-19T01:01:58.285Z,35.96
2023-06-19T01:02:57.274Z,36.00
2023-06-19T01:03:57.327Z,35.97
2023-06-19T01:04:57.214Z,36.00
2023-06-19T01:05:57.187Z,36.00
2023-06-19T01:06:57.181Z,35.93
2023-06-19T01:07:57.171Z,35.97
2023-06-19T01:08:57.179Z,35.98
2023-06-19T01:09:57.148Z,35.99
2023-06-19T01:10:57.146Z,35.97
2023-06-19T01:11:57.179Z,35.97
2023-06-19T01:12:57.127Z,36.03
2023-06-19T01:13:57.133Z,35.95
2023-06-19T01:14:57.158Z,36.02
2023-06-19T01:15:57.132Z,36.03
2023-06-19T01:16:57.133Z,35.99
2023-06-19T01:17:57.107Z,35.99
2023-06-19T01:18:57.128Z,36.08
2023-06-19T01:19:57.106Z,35.99
2023-06-19T01:20:57.077Z,36.03
2023-06-19T01:21:57.105Z,36.00
2023-06-19T01:22:57.052Z,36.00
2023-06-19T01:23:57.349Z,36.04
2023-06-19T01:24:57.043Z,36.07
2023-06-19T01:25:57.065Z,36.04
2023-06-19T01:26:57.051Z,36.06
2023-06-19T01:27:57.043Z,36.04
2023-06-19T01:28:57.159Z,36.03
2023-06-19T01:29:57.018Z,36.11
2023-06-19T01:30:57.014Z,36.10
2023-06-19T01:31:57.032Z,36.03
2023-06-19T01:32:57.074Z,36.04
2023-06-19T01:33:56.988Z,36.04
2023-06-19T01:34:57.006Z,36.07
2023-06-19T01:35:56.977Z,36.11
2023-06-19T01:36:57.001Z,36.10
2023-06-19T01:37:56.979Z,36.07
2023-06-19T01:38:56.976Z,36.11
2023-06-19T01:39:56.939Z,36.06
2023-06-19T01:40:56.985Z,36.07
2023-06-19T01:41:56.937Z,36.09
2023-06-19T01:42:56.951Z,36.07
2023-06-19T01:43:56.953Z,36.05
2023-06-19T01:44:56.972Z,36.10
2023-06-19T01:45:57.007Z,36.12
2023-06-19T01:46:57.059Z,36.07
2023-06-19T01:47:57.043Z,36.10
2023-06-19T01:48:57.078Z,36.09
2023-06-19T01:49:57.074Z,36.10
2023-06-19T01:50:57.093Z,36.10
2023-06-19T01:51:57.120Z,36.07
2023-06-19T01:52:57.148Z,36.14
2023-06-19T01:53:57.173Z,36.12
2023-06-19T01:54:57.228Z,36.10
2023-06-19T01:55:57.239Z,36.12
2023-06-19T01:56:57.273Z,36.10
2023-06-19T01:57:57.282Z,36.13
2023-06-19T01:58:57.319Z,36.10
2023-06-19T01:59:57.318Z,36.11
2023-06-19T02:00:57.333Z,36.14
2023-06-19T02:01:57.363Z,36.12
2023-06-19T02:02:57.467Z,36.17
2023-06-19T02:03:57.483Z,36.15
2023-06-19T02:04:57.460Z,36.11
2023-06-19T02:05:57.464Z,36.12
2023-06-19T02:06:57.490Z,36.14
2023-06-19T02:07:57.502Z,36.15
2023-06-19T02:08:57.550Z,36.17
2023-06-19T02:09:57.551Z,36.17
2023-06-19T02:10:57.598Z,36.14
2023-06-19T02:11:57.625Z,36.17
2023-06-19T02:12:57.618Z,36.15
2023-06-19T02:13:57.644Z,36.20
2023-06-19T02:14:57.699Z,36.25
2023-06-19T02:15:57.764Z,36.24
2023-06-19T02:16:57.731Z,36.20
2023-06-19T02:17:57.815Z,36.24
2023-06-19T02:18:57.808Z,36.15
2023-06-19T02:19:57.828Z,36.22
2023-06-19T02:20:57.876Z,36.20
2023-06-19T02:21:57.896Z,36.27
2023-06-19T02:22:57.932Z,36.22
2023-06-19T02:23:57.941Z,36.20
2023-06-19T02:24:57.994Z,36.22
2023-06-19T02:25:57.960Z,36.21
2023-06-19T02:26:58.031Z,36.20
2023-06-19T02:27:58.036Z,36.21
2023-06-19T02:28:58.069Z,36.22
2023-06-19T02:29:58.085Z,36.21
2023-06-19T02:30:58.122Z,36.22
2023-06-19T02:31:58.160Z,36.20
2023-06-19T02:32:58.177Z,36.21
2023-06-19T02:33:58.184Z,36.21
2023-06-19T02:34:58.226Z,36.22
2023-06-19T02:35:58.220Z,36.25
2023-06-19T02:36:58.240Z,36.25
2023-06-19T02:37:58.271Z,36.22
2023-06-19T02:38:58.322Z,36.27
2023-06-19T02:39:58.310Z,36.26
2023-06-19T02:40:58.429Z,36.27
2023-06-19T02:41:58.407Z,36.27
2023-06-19T02:42:58.410Z,36.24
2023-06-19T02:43:58.449Z,36.27
2023-06-19T02:44:58.477Z,36.27
2023-06-19T02:45:58.576Z,36.24
2023-06-19T02:46:58.500Z,36.26
2023-06-19T02:47:58.593Z,36.25
2023-06-19T02:48:58.517Z,36.26
2023-06-19T02:49:58.527Z,36.37
2023-06-19T02:50:58.572Z,36.32
2023-06-19T02:51:58.566Z,36.26
2023-06-19T02:52:58.615Z,36.27
2023-06-19T02:53:58.621Z,36.32
2023-06-19T02:54:58.654Z,36.30
2023-06-19T02:55:58.706Z,36.31
2023-06-19T02:56:58.672Z,36.32
2023-06-19T02:57:58.676Z,36.29
2023-06-19T02:58:58.714Z,36.27
2023-06-19T02:59:58.723Z,36.31
2023-06-19T03:00:58.868Z,36.32
2023-06-19T03:01:58.777Z,36.28
2023-06-19T03:02:58.986Z,36.33
2023-06-19T03:03:58.813Z,36.33
2023-06-19T03:04:58.872Z,36.39
2023-06-19T03:05:58.911Z,36.39
2023-06-19T03:06:58.936Z,36.34
2023-06-19T03:07:58.970Z,36.38
2023-06-19T03:08:58.945Z,36.30
2023-06-19T03:09:58.984Z,36.36
2023-06-19T03:10:59.010Z,36.40
2023-06-19T03:11:59.008Z,36.40
2023-06-19T03:12:59.057Z,36.33
2023-06-19T03:13:59.064Z,36.35
2023-06-19T03:14:59.059Z,36.36
2023-06-19T03:15:59.108Z,36.38
2023-06-19T03:16:59.147Z,36.33
2023-06-19T03:17:59.187Z,36.35
2023-06-19T03:18:59.167Z,36.40
2023-06-19T03:19:59.173Z,36.40
2023-06-19T03:20:59.213Z,36.40
2023-06-19T03:21:59.220Z,36.42
2023-06-19T03:22:59.251Z,36.42
2023-06-19T03:23:59.286Z,36.40
2023-06-19T03:24:59.278Z,36.34
2023-06-19T03:25:59.329Z,36.40
2023-06-19T03:26:59.341Z,36.44
2023-06-19T03:27:59.350Z,36.42
2023-06-19T03:28:59.375Z,36.40
2023-06-19T03:29:59.435Z,36.38
2023-06-19T03:30:59.416Z,36.44
2023-06-19T03:31:59.462Z,36.40
2023-06-19T03:32:59.545Z,36.36
2023-06-19T03:33:59.490Z,36.38
2023-06-19T03:34:59.520Z,36.38
2023-06-19T03:35:59.522Z,36.42
2023-06-19T03:36:59.573Z,36.40
2023-06-19T03:37:59.577Z,36.43
2023-06-19T03:38:59.596Z,36.43
2023-06-19T03:39:59.620Z,36.47
2023-06-19T03:40:59.676Z,36.44
2023-06-19T03:41:59.673Z,36.46
2023-06-19T03:42:59.726Z,36.56
2023-06-19T03:43:59.729Z,36.45
2023-06-19T03:44:59.778Z,36.50
2023-06-19T03:45:59.790Z,36.63
2023-06-19T03:46:59.820Z,36.51
2023-06-19T03:47:59.848Z,36.44
2023-06-19T03:48:59.857Z,36.45
2023-06-19T03:50:59.879Z,36.48
2023-06-19T03:51:59.918Z,36.46
2023-06-19T03:52:59.912Z,36.50
2023-06-19T03:53:59.971Z,36.44
2023-06-19T03:54:59.965Z,36.47
2023-06-19T03:56:00.160Z,36.46
2023-06-19T03:57:00.034Z,36.55
2023-06-19T03:58:00.138Z,36.47
2023-06-19T03:59:00.063Z,36.46
2023-06-19T04:00:00.115Z,36.50
2023-06-19T04:01:00.139Z,36.48
2023-06-19T04:02:00.293Z,36.52
2023-06-19T04:03:00.306Z,36.48
2023-06-19T04:04:00.289Z,36.48
2023-06-19T04:05:00.226Z,36.43
2023-06-19T04:06:00.216Z,36.44
2023-06-19T04:07:00.314Z,36.48
2023-06-19T04:08:00.300Z,36.48
2023-06-19T04:09:00.315Z,36.50
2023-06-19T04:10:00.353Z,36.53
2023-06-19T04:11:00.349Z,36.55
2023-06-19T04:12:00.412Z,36.52
2023-06-19T04:13:00.420Z,36.50
2023-06-19T04:14:00.447Z,36.53
2023-06-19T04:15:00.499Z,36.50
2023-06-19T04:16:00.491Z,36.48
2023-06-19T04:17:00.492Z,36.51
2023-06-19T04:18:00.903Z,36.51
2023-06-19T04:19:00.876Z,36.54
2023-06-19T04:20:00.597Z,36.54
2023-06-19T04:21:00.520Z,36.53
2023-06-19T04:22:00.541Z,36.50
2023-06-19T04:23:00.587Z,36.50
2023-06-19T04:24:00.629Z,36.74
2023-06-19T04:25:00.602Z,36.91
2023-06-19T04:26:00.634Z,36.95
2023-06-19T04:27:00.668Z,37.15
2023-06-19T04:28:00.662Z,37.40
2023-06-19T04:29:00.720Z,38.73
2023-06-19T04:30:00.778Z,39.44
2023-06-19T04:31:00.803Z,40.89
2023-06-19T04:32:00.870Z,40.06
2023-06-19T04:33:01.002Z,40.99
2023-06-19T04:34:00.990Z,41.38
2023-06-19T04:35:01.027Z,41.26
2023-06-19T04:36:01.073Z,40.53
2023-06-19T04:37:01.185Z,40.20
2023-06-19T04:38:01.156Z,39.84
2023-06-19T04:39:01.237Z,39.85
2023-06-19T04:40:01.264Z,39.68
2023-06-19T04:41:01.318Z,39.59
2023-06-19T04:42:01.354Z,39.52
2023-06-19T04:43:01.381Z,39.45
2023-06-19T04:44:01.433Z,39.20
2023-06-19T04:45:01.504Z,39.19
2023-06-19T04:46:01.584Z,39.09
2023-06-19T04:47:01.566Z,39.03
2023-06-19T04:48:01.647Z,39.03
2023-06-19T04:49:01.677Z,38.98
2023-06-19T04:50:01.688Z,38.85
2023-06-19T04:51:01.739Z,38.86
2023-06-19T04:52:01.795Z,38.80
2023-06-19T04:53:01.803Z,38.75
2023-06-19T04:54:01.828Z,38.72
2023-06-19T04:55:01.885Z,38.68
2023-06-19T04:56:02.952Z,38.67
2023-06-19T04:57:01.980Z,38.67
2023-06-19T04:58:02.007Z,38.69
2023-06-19T04:59:02.057Z,38.68
2023-06-19T05:00:02.068Z,38.61
2023-06-19T05:01:02.110Z,38.63
2023-06-19T05:02:02.184Z,38.61
2023-06-19T05:03:02.206Z,38.66
2023-06-19T05:04:02.254Z,38.53
2023-06-19T05:05:02.309Z,38.59
2023-06-19T05:06:02.327Z,38.57
2023-06-19T05:07:02.373Z,38.57
2023-06-19T05:08:02.392Z,38.54
2023-06-19T05:09:02.456Z,38.56
2023-06-19T05:10:02.539Z,38.60
2023-06-19T05:11:02.549Z,38.55
2023-06-19T05:12:02.589Z,38.55
2023-06-19T05:13:02.633Z,38.59
2023-06-19T05:14:02.693Z,38.60
2023-06-19T05:15:02.734Z,38.54
2023-06-19T05:16:02.865Z,38.53
2023-06-19T05:17:02.841Z,38.53
2023-06-19T05:18:02.895Z,38.51
2023-06-19T05:19:02.889Z,38.53
2023-06-19T05:20:02.932Z,38.56
2023-06-19T05:21:03.000Z,38.54
2023-06-19T05:22:03.034Z,38.57
2023-06-19T05:23:03.081Z,38.63
2023-06-19T05:24:03.138Z,38.57
2023-06-19T05:25:03.154Z,38.56
2023-06-19T05:26:03.200Z,38.60
2023-06-19T05:27:03.278Z,38.57
2023-06-19T05:28:05.780Z,38.57
2023-06-19T05:29:03.256Z,38.55
2023-06-19T05:30:03.277Z,38.58
2023-06-19T05:31:03.285Z,38.55
2023-06-19T05:32:03.251Z,38.60
2023-06-19T05:33:03.279Z,38.52
2023-06-19T05:34:03.226Z,38.55
2023-06-19T05:35:03.244Z,38.58
2023-06-19T05:36:03.244Z,38.54
2023-06-19T05:37:03.254Z,38.55
2023-06-19T05:38:03.223Z,38.62
2023-06-19T05:39:03.220Z,38.83
2023-06-19T05:40:03.229Z,38.73
2023-06-19T05:41:03.217Z,38.78
2023-06-19T05:42:03.213Z,38.76
2023-06-19T05:43:03.177Z,38.80
2023-06-19T05:44:03.195Z,38.77
2023-06-19T05:45:03.150Z,38.67
2023-06-19T05:46:03.206Z,38.73
2023-06-19T05:47:03.137Z,39.06
2023-06-19T05:48:03.249Z,39.73
2023-06-19T05:49:03.155Z,39.35
2023-06-19T05:50:03.124Z,39.34
2023-06-19T05:51:03.138Z,39.97
2023-06-19T05:52:03.140Z,39.73
2023-06-19T05:53:03.100Z,39.95
2023-06-19T05:54:03.115Z,40.39
2023-06-19T05:55:03.111Z,40.08
2023-06-19T05:56:03.101Z,40.05
2023-06-19T05:57:03.129Z,40.05
2023-06-19T05:58:03.090Z,40.01
2023-06-19T05:59:03.058Z,40.60
2023-06-19T06:00:03.084Z,40.30
2023-06-19T06:01:03.113Z,40.31
2023-06-19T06:02:03.064Z,40.52
2023-06-19T06:03:03.079Z,40.72
2023-06-19T06:04:03.148Z,40.89
2023-06-19T06:05:03.074Z,40.68
2023-06-19T06:06:03.010Z,40.87
2023-06-19T06:07:03.012Z,41.18
2023-06-19T06:08:03.017Z,41.37
2023-06-19T06:09:02.996Z,41.60
2023-06-19T06:10:03.003Z,41.82
2023-06-19T06:11:02.969Z,42.02
2023-06-19T06:12:02.969Z,42.01
2023-06-19T06:13:02.959Z,42.44
2023-06-19T06:14:02.977Z,42.35
2023-06-19T06:15:03.009Z,42.67
2023-06-19T06:16:02.978Z,42.70
2023-06-19T06:17:03.032Z,42.94
2023-06-19T06:18:02.977Z,42.86
2023-06-19T06:19:02.935Z,42.92
2023-06-19T06:20:02.955Z,43.22
2023-06-19T06:21:02.913Z,43.44
2023-06-19T06:22:02.927Z,43.61
2023-06-19T06:23:02.923Z,43.63
2023-06-19T06:24:02.981Z,43.73
2023-06-19T06:25:02.899Z,43.74
2023-06-19T06:26:02.919Z,43.70
2023-06-19T06:27:02.896Z,43.88
2023-06-19T06:28:02.881Z,43.98
2023-06-19T06:29:02.870Z,44.09
2023-06-19T06:30:02.951Z,44.19
2023-06-19T06:31:02.949Z,44.16
2023-06-19T06:32:02.990Z,44.14
2023-06-19T06:33:03.096Z,44.14
2023-06-19T06:34:03.056Z,44.34
2023-06-19T06:35:03.115Z,44.45
2023-06-19T06:36:03.252Z,44.42
2023-06-19T06:37:06.530Z,44.63
2023-06-19T06:38:03.147Z,44.59
2023-06-19T06:39:03.166Z,44.74
2023-06-19T06:40:03.131Z,44.74
2023-06-19T06:41:03.162Z,44.93
2023-06-19T06:42:03.174Z,44.77
2023-06-19T06:43:03.153Z,44.90
2023-06-19T06:44:03.102Z,45.08
2023-06-19T06:45:03.116Z,45.01
2023-06-19T06:46:03.178Z,45.14
2023-06-19T06:47:03.079Z,45.13
2023-06-19T06:48:03.162Z,45.41
2023-06-19T06:49:03.092Z,45.31
2023-06-19T06:50:03.061Z,45.24
2023-06-19T06:51:03.081Z,45.68
2023-06-19T06:52:03.073Z,45.76
2023-06-19T06:53:03.162Z,45.61
2023-06-19T06:54:03.081Z,45.56
2023-06-19T06:55:03.045Z,45.24
2023-06-19T06:56:03.087Z,44.86
2023-06-19T06:57:03.076Z,45.00
2023-06-19T06:58:03.118Z,44.77
2023-06-19T06:59:03.025Z,44.35
2023-06-19T07:00:03.023Z,44.35
2023-06-19T07:01:03.028Z,44.28
2023-06-19T07:02:03.042Z,44.49
2023-06-19T07:03:03.135Z,44.66
2023-06-19T07:04:02.990Z,44.66
2023-06-19T07:05:02.970Z,44.82
2023-06-19T07:06:02.989Z,45.05
2023-06-19T07:07:02.959Z,45.07
2023-06-19T07:08:02.948Z,45.38
2023-06-19T07:09:02.931Z,45.41
2023-06-19T07:10:02.942Z,45.64
2023-06-19T07:11:02.951Z,45.83
2023-06-19T07:12:02.911Z,45.75
2023-06-19T07:13:02.925Z,46.07
2023-06-19T07:14:02.936Z,45.85
2023-06-19T07:15:02.925Z,45.93
2023-06-19T07:16:02.889Z,45.86
2023-06-19T07:17:03.963Z,46.10
2023-06-19T07:18:02.917Z,46.11
2023-06-19T07:19:02.888Z,46.24
2023-06-19T07:20:02.894Z,46.51
2023-06-19T07:21:02.856Z,46.64
2023-06-19T07:22:02.856Z,46.46
2023-06-19T07:23:02.904Z,45.31
2023-06-19T07:24:02.856Z,45.31
2023-06-19T07:25:02.826Z,45.33
2023-06-19T07:26:02.901Z,45.08
2023-06-19T07:27:02.812Z,44.43
2023-06-19T07:28:02.835Z,43.88
2023-06-19T07:29:02.818Z,44.12
2023-06-19T07:30:02.810Z,44.37
2023-06-19T07:31:02.826Z,44.22
2023-06-19T07:32:02.814Z,44.13
2023-06-19T07:33:02.805Z,43.91
2023-06-19T07:34:02.798Z,43.86
2023-06-19T07:35:02.845Z,43.09
2023-06-19T07:36:02.909Z,42.82
2023-06-19T07:37:02.938Z,42.64
2023-06-19T07:38:02.974Z,42.77
2023-06-19T07:39:02.974Z,42.77
2023-06-19T07:40:03.411Z,42.47
2023-06-19T07:41:03.061Z,42.59
2023-06-19T07:42:03.108Z,42.64
2023-06-19T07:43:03.161Z,42.40
2023-06-19T07:44:03.176Z,42.24
2023-06-19T07:45:03.235Z,42.09
2023-06-19T07:46:03.346Z,42.10
2023-06-19T07:47:03.361Z,42.01
2023-06-19T07:48:03.449Z,42.10
2023-06-19T07:49:03.410Z,42.01
2023-06-19T07:50:03.513Z,42.11
2023-06-19T07:51:03.547Z,42.23
2023-06-19T07:52:03.602Z,42.23
2023-06-19T07:53:03.652Z,42.36
2023-06-19T07:54:03.721Z,42.42
2023-06-19T07:55:03.730Z,42.33
2023-06-19T07:56:03.813Z,42.50
2023-06-19T07:57:03.819Z,42.72
2023-06-19T07:58:03.870Z,42.75
2023-06-19T07:59:06.098Z,42.92
2023-06-19T08:00:03.903Z,43.37
2023-06-19T08:01:03.905Z,43.97
2023-06-19T08:02:03.952Z,43.98
2023-06-19T08:03:05.016Z,44.13
2023-06-19T08:04:03.919Z,44.15
2023-06-19T08:05:03.995Z,44.56
2023-06-19T08:06:03.912Z,44.85
2023-06-19T08:07:03.930Z,45.48
2023-06-19T08:08:03.910Z,44.89
2023-06-19T08:09:03.898Z,44.76
2023-06-19T08:10:13.378Z,44.62
2023-06-19T08:11:05.149Z,44.85
2023-06-19T08:12:04.195Z,45.01
2023-06-19T08:13:04.222Z,44.77
2023-06-19T08:14:04.260Z,44.59
2023-06-19T08:15:04.312Z,44.59
2023-06-19T08:16:04.308Z,44.28
2023-06-19T08:17:04.361Z,44.09
2023-06-19T08:18:04.400Z,44.04
2023-06-19T08:19:04.352Z,43.97
2023-06-19T08:20:04.361Z,43.95
2023-06-19T08:21:04.365Z,43.93
2023-06-19T08:22:04.366Z,43.90
2023-06-19T08:23:06.554Z,43.87
2023-06-19T08:24:04.446Z,43.82
2023-06-19T08:25:04.456Z,43.78
2023-06-19T08:26:04.478Z,43.67
2023-06-19T08:27:04.475Z,43.69
2023-06-19T08:28:04.480Z,43.63
2023-06-19T08:29:04.515Z,43.57
2023-06-19T08:30:04.477Z,43.51
2023-06-19T08:31:04.494Z,43.39
2023-06-19T08:32:04.521Z,43.14
2023-06-19T08:33:04.715Z,43.02
2023-06-19T08:34:04.504Z,43.27
2023-06-19T08:35:04.558Z,43.53
2023-06-19T08:36:04.532Z,43.52
2023-06-19T08:37:04.557Z,43.50
2023-06-19T08:38:04.580Z,43.32
2023-06-19T08:39:04.571Z,43.45
2023-06-19T08:40:04.574Z,42.65
2023-06-19T08:41:04.625Z,43.30
2023-06-19T08:42:04.640Z,43.51
2023-06-19T08:43:04.619Z,43.48
2023-06-19T08:44:04.753Z,43.28
2023-06-19T08:45:04.695Z,43.34
2023-06-19T08:46:04.778Z,43.12
2023-06-19T08:47:04.859Z,42.70
2023-06-19T08:48:04.919Z,42.65
2023-06-19T08:49:04.843Z,42.51
2023-06-19T08:50:04.863Z,42.65
2023-06-19T08:51:04.858Z,42.72
2023-06-19T08:52:04.946Z,42.53
2023-06-19T08:53:04.932Z,42.85
2023-06-19T08:54:04.971Z,42.78
2023-06-19T08:55:04.960Z,43.04
2023-06-19T08:56:05.006Z,43.47
2023-06-19T08:57:05.139Z,43.78
2023-06-19T08:58:05.078Z,44.23
2023-06-19T08:59:05.105Z,44.40
2023-06-19T09:00:05.154Z,44.68
2023-06-19T09:01:05.213Z,44.65
2023-06-19T09:02:05.370Z,45.01
2023-06-19T09:03:13.467Z,45.09
2023-06-19T09:04:06.329Z,45.14
2023-06-19T09:05:05.295Z,45.25
2023-06-19T09:06:05.422Z,45.23
2023-06-19T09:07:05.572Z,45.50
2023-06-19T09:08:05.691Z,45.45
2023-06-19T09:09:05.285Z,45.51
2023-06-19T09:10:05.313Z,45.56
2023-06-19T09:11:05.273Z,45.57
2023-06-19T09:12:05.241Z,45.71
2023-06-19T09:13:05.280Z,45.72
2023-06-19T09:14:05.226Z,45.80
2023-06-19T09:15:05.265Z,45.69
2023-06-19T09:16:05.328Z,45.65
2023-06-19T09:17:05.345Z,45.67
2023-06-19T09:18:05.447Z,45.82
2023-06-19T09:19:05.410Z,45.87
2023-06-19T09:20:05.467Z,46.03
2023-06-19T09:21:05.486Z,46.05
2023-06-19T09:22:05.524Z,46.25
2023-06-19T09:23:05.562Z,46.32
2023-06-19T09:24:05.607Z,46.45
2023-06-19T09:25:05.603Z,46.50
2023-06-19T09:26:05.632Z,46.57
2023-06-19T09:27:05.639Z,46.67
2023-06-19T09:28:05.704Z,46.73
2023-06-19T09:29:05.817Z,46.71
2023-06-19T09:30:05.727Z,46.93
2023-06-19T09:31:05.808Z,46.95
2023-06-19T09:32:05.823Z,46.94
2023-06-19T09:33:06.223Z,47.02
2023-06-19T09:34:05.877Z,47.10
2023-06-19T09:35:05.829Z,47.14
2023-06-19T09:36:05.885Z,47.13
2023-06-19T09:37:05.896Z,47.30
2023-06-19T09:38:06.249Z,47.30
2023-06-19T09:39:05.933Z,47.43
2023-06-19T09:40:05.979Z,47.60
2023-06-19T09:41:05.993Z,47.43
2023-06-19T09:42:06.000Z,47.49
2023-06-19T09:43:06.273Z,47.45
2023-06-19T09:44:06.039Z,47.60
2023-06-19T09:45:06.029Z,47.55
2023-06-19T09:46:06.102Z,47.58
2023-06-19T09:47:06.119Z,47.35
2023-06-19T09:48:06.274Z,47.29
2023-06-19T09:49:06.170Z,47.08
2023-06-19T09:50:06.214Z,47.04
2023-06-19T09:51:06.225Z,46.24
2023-06-19T09:52:06.289Z,45.83
2023-06-19T09:53:06.303Z,46.02
2023-06-19T09:54:06.351Z,45.96
2023-06-19T09:55:06.354Z,42.52
2023-06-19T09:56:06.352Z,44.24
2023-06-19T09:57:06.394Z,45.03
2023-06-19T09:58:06.683Z,43.03
2023-06-19T09:59:06.476Z,44.01
2023-06-19T10:00:06.488Z,41.19
2023-06-19T10:01:06.506Z,40.92
2023-06-19T10:02:06.527Z,41.15
2023-06-19T10:03:06.657Z,41.18
2023-06-19T10:04:06.577Z,41.43
2023-06-19T10:05:06.525Z,38.61
2023-06-19T10:06:06.533Z,39.84
2023-06-19T10:07:06.534Z,38.85
2023-06-19T10:08:06.572Z,39.11
2023-06-19T10:09:06.587Z,38.90
2023-06-19T10:10:06.562Z,39.40
2023-06-19T10:11:06.605Z,39.56
2023-06-19T10:12:06.615Z,38.82
2023-06-19T10:13:06.664Z,38.13
2023-06-19T10:14:06.657Z,38.46
2023-06-19T10:15:06.661Z,38.23
2023-06-19T10:16:06.670Z,37.38
2023-06-19T10:17:06.682Z,37.58
2023-06-19T10:18:06.834Z,36.42
2023-06-19T10:19:06.793Z,37.02
2023-06-19T10:20:06.878Z,36.96
2023-06-19T10:21:06.872Z,37.03
2023-06-19T10:22:06.916Z,37.04
2023-06-19T10:23:06.991Z,36.64
2023-06-19T10:24:07.081Z,36.96
2023-06-19T10:25:07.070Z,36.80
2023-06-19T10:26:07.116Z,36.71
2023-06-19T10:27:07.153Z,37.00
2023-06-19T10:28:07.192Z,36.89
2023-06-19T10:29:07.267Z,36.56
2023-06-19T10:30:11.870Z,35.89
2023-06-19T10:31:08.299Z,36.24
2023-06-19T10:32:07.297Z,36.27
2023-06-19T10:33:07.289Z,36.28
2023-06-19T10:34:07.280Z,36.39
2023-06-19T10:35:07.255Z,36.50
2023-06-19T10:36:07.262Z,36.24
2023-06-19T10:37:07.244Z,36.22
2023-06-19T10:38:07.727Z,36.28
2023-06-19T10:39:07.257Z,36.62
2023-06-19T10:40:07.239Z,36.35
2023-06-19T10:41:07.270Z,36.00
2023-06-19T10:42:07.332Z,36.52
2023-06-19T10:43:07.396Z,36.23
2023-06-19T10:44:07.404Z,35.84
2023-06-19T10:45:07.525Z,35.96
2023-06-19T10:46:07.567Z,35.86
2023-06-19T10:47:07.542Z,36.01
2023-06-19T10:48:07.729Z,36.03
2023-06-19T10:49:07.588Z,36.05
2023-06-19T10:50:08.701Z,36.06
2023-06-19T10:51:07.599Z,36.09
2023-06-19T10:52:07.667Z,36.21
2023-06-19T10:53:07.589Z,36.27
2023-06-19T10:54:07.585Z,36.31
2023-06-19T10:55:07.564Z,36.39
2023-06-19T10:56:07.538Z,36.45
2023-06-19T10:57:07.569Z,36.53
2023-06-19T10:58:07.545Z,36.52
2023-06-19T10:59:07.539Z,36.60
2023-06-19T11:00:07.533Z,36.63
2023-06-19T11:01:07.532Z,36.70
2023-06-19T11:02:07.546Z,36.78
2023-06-19T11:03:07.631Z,36.84
2023-06-19T11:04:07.543Z,36.90
2023-06-19T11:05:07.501Z,37.03
2023-06-19T11:06:07.511Z,37.04
2023-06-19T11:07:07.525Z,37.11
2023-06-19T11:08:07.512Z,37.13
2023-06-19T11:09:07.511Z,37.20
2023-06-19T11:10:07.442Z,37.22
2023-06-19T11:11:07.439Z,37.28
2023-06-19T11:12:07.457Z,37.30
2023-06-19T11:13:07.455Z,37.30
2023-06-19T11:14:07.466Z,37.35
2023-06-19T11:15:07.446Z,37.45
2023-06-19T11:16:07.426Z,37.45
2023-06-19T11:17:07.432Z,37.49
2023-06-19T11:18:07.458Z,37.49
2023-06-19T11:19:07.409Z,37.51
2023-06-19T11:20:07.403Z,37.54
2023-06-19T11:21:07.358Z,37.57
2023-06-19T11:22:07.414Z,37.59
2023-06-19T11:23:07.377Z,37.63
2023-06-19T11:24:07.404Z,37.66
2023-06-19T11:25:07.347Z,37.67
2023-06-19T11:26:07.445Z,37.70
2023-06-19T11:27:07.348Z,37.73
2023-06-19T11:28:07.366Z,37.75
2023-06-19T11:30:07.333Z,37.78
2023-06-19T11:31:07.377Z,37.79
2023-06-19T11:32:07.319Z,37.84
2023-06-19T11:33:07.297Z,37.84
2023-06-19T11:34:07.316Z,37.88
2023-06-19T11:35:07.308Z,37.89
2023-06-19T11:36:07.320Z,37.91
2023-06-19T11:37:07.263Z,37.92
2023-06-19T11:38:07.293Z,38.01
2023-06-19T11:39:07.280Z,37.96
2023-06-19T11:40:07.352Z,38.00
2023-06-19T11:41:07.229Z,38.00
2023-06-19T11:42:07.323Z,38.08
2023-06-19T11:43:07.224Z,38.04
2023-06-19T11:44:07.291Z,38.09
2023-06-19T11:45:07.377Z,38.09
2023-06-19T11:46:07.392Z,38.09
2023-06-19T11:47:07.386Z,38.14
2023-06-19T11:48:07.765Z,38.13
2023-06-19T11:49:07.769Z,38.17
2023-06-19T11:50:07.526Z,38.17
2023-06-19T11:51:07.510Z,38.20
2023-06-19T11:52:07.602Z,38.20
2023-06-19T11:53:07.574Z,38.22
2023-06-19T11:54:07.624Z,38.26
2023-06-19T11:55:08.210Z,38.24
2023-06-19T11:56:07.657Z,38.25
2023-06-19T11:57:07.670Z,38.28
2023-06-19T11:58:07.664Z,38.30
2023-06-19T11:59:07.685Z,38.29
2023-06-19T12:00:07.723Z,38.28
2023-06-19T12:01:07.716Z,38.33
2023-06-19T12:02:07.795Z,38.34
2023-06-19T12:03:07.880Z,38.29
2023-06-19T12:04:08.010Z,38.27
2023-06-19T12:05:07.784Z,38.24
2023-06-19T12:06:07.791Z,38.34
2023-06-19T12:07:07.785Z,38.31
2023-06-19T12:08:07.824Z,38.34
2023-06-19T12:09:07.845Z,38.34
2023-06-19T12:10:07.823Z,38.36
2023-06-19T12:11:07.823Z,38.32
2023-06-19T12:12:07.857Z,38.39
2023-06-19T12:13:07.840Z,38.36
2023-06-19T12:14:07.857Z,38.38
2023-06-19T12:15:07.861Z,38.40
2023-06-19T12:16:07.884Z,38.37
2023-06-19T12:17:07.930Z,38.42
2023-06-19T12:18:07.930Z,38.40
2023-06-19T12:19:07.921Z,38.43
2023-06-19T12:20:07.879Z,38.43
2023-06-19T12:21:12.897Z,38.48
2023-06-19T12:22:08.885Z,38.46
2023-06-19T12:23:07.900Z,38.48
2023-06-19T12:24:07.947Z,38.49
2023-06-19T12:25:07.893Z,38.46
2023-06-19T12:26:07.855Z,38.46
2023-06-19T12:27:07.890Z,38.43
2023-06-19T12:28:08.292Z,38.41
2023-06-19T12:29:07.911Z,38.38
2023-06-19T12:30:07.851Z,38.41
2023-06-19T12:31:07.868Z,38.44
2023-06-19T12:32:07.852Z,38.43
2023-06-19T12:33:07.905Z,38.49
2023-06-19T12:34:17.023Z,38.46
2023-06-19T12:35:08.833Z,38.45
2023-06-19T12:36:07.832Z,38.49
2023-06-19T12:37:07.817Z,38.52
2023-06-19T12:38:07.828Z,38.54
2023-06-19T12:39:07.776Z,38.49
2023-06-19T12:40:07.757Z,38.51
2023-06-19T12:41:07.787Z,38.54
2023-06-19T12:42:07.769Z,38.54
2023-06-19T12:43:07.765Z,38.50
2023-06-19T12:44:07.744Z,38.51
2023-06-19T12:45:07.784Z,38.53
2023-06-19T12:46:07.782Z,38.55
2023-06-19T12:47:07.729Z,38.54
2023-06-19T12:48:07.819Z,38.55
2023-06-19T12:49:07.709Z,38.56
2023-06-19T12:50:07.699Z,38.61
2023-06-19T12:51:07.703Z,38.56
2023-06-19T12:52:07.677Z,38.61
2023-06-19T12:53:07.739Z,38.59
2023-06-19T12:54:07.698Z,38.63
2023-06-19T12:55:07.671Z,38.62